PAWGPAKT

Guest
Details From PAWG - WRANGELL
To PAKT - KETCHIKAN INTL
Flight Number -
Tags generated
Created
Modified
Stats Distance 74 nm / 138 km
Max Altitude 2,000 ft / 610 m
Waypoints 3
Social Downloads 1
Likes 0
Share VATSIM

Download

Looking for another format? Having issues loading an existing format? Contact us
Advertisement - Login to hide

Notes

Basic altitude profile: - Ascent Rate: 950ft/min - Ascent Speed: 105kts - Cruise Altitude: 4500ft - Cruise Speed: 205kts - Descent Rate: 900ft/min - Descent Speed: 110kts Options: - Use NATs: yes - Use PACOTS: yes - Use low airways: yes - Use high airways: yes

Route

PAWG GESTI PAKT

ID Type Via Altitude Latitude Longitude Leg Dist Tot Dist Heading (true) Name
O PAWG APT - 0 ft / 0 m 56.48432˚ -132.36983˚ - 0 nm - WRANGELL
GESTI FIX - 2,000 ft / 610 m 55.43263˚ -131.96400˚ 64 nm 64 nm 168° / 168° -
O PAKT APT - 0 ft / 0 m 55.35554˚ -131.71374˚ 9 nm 74 nm 118° / 119° KETCHIKAN INTL

Altitude Profile

Advertisement - Login to hide

PAWG

Details ICAO PAWG (WRG)
Name WRANGELL
Region USA (Alaska)
Timezone America/Juneau (UTC-9.0)
Stats Elevation 44 ft / 13 m (AMSL)
Location 56.484324° -132.369832°
Runways 1
Magnetic Variation 18.807° E

METAR

PAWG 161756Z 09012G20KT 5SM -RA BR FEW010 SCT020 OVC030 04/02 A2970

Decode

TAF

PAWG 161739Z 1618/1718 10012G20KT 6SM -RA BR SCT025 OVC035 WS020/15035KT TEMPO 1618/1620 4SM RA BR BKN020 OVC030 FM162100 14012KT 6SM -RA BR BKN015 OVC025 WS020/24020KT FM170000 23010KT P6SM -SHRA SCT025 OVC035

Decode

Departure Runways

ID Width Length Bearing (true) Bearing (mag) Surface Threshold Offset Overrun Length
10 150 ft / 46 m 5,983 ft / 1,824 m 121.43° 102.62° Asphalt 0 ft / 0 m 0 ft / 0 m
28 150 ft / 46 m 5,983 ft / 1,824 m 301.45° 282.64° Asphalt 0 ft / 0 m 0 ft / 0 m

PAKT

Details ICAO PAKT (KTN)
Name KETCHIKAN INTL
Region USA (Alaska)
Timezone Unknown (UTC+0.0)
Stats Elevation 88 ft / 27 m (AMSL)
Location 55.355545° -131.713737°
Runways 1
Magnetic Variation 18.532° E

METAR

PAKT 161753Z 14017G26KT 2 1/2SM -RA BR OVC014 06/04 A2973

Decode

TAF

PAKT 161739Z 1618/1718 14015G30KT 6SM -RA BR OVC015 WS020/16045KT TEMPO 1619/1622 2SM RA BR FM162200 15015G25KT 2SM RA BR OVC015 WS020/18030KT FM170000 16011KT 5SM -SHRA BR SCT015 OVC025 WS020/27025KT FM170600 16008KT P6SM -SHRA SCT025 OVC035 WS020/27025KT

Decode

Destination Runways

ID Width Length Bearing (true) Bearing (mag) Surface Threshold Offset Overrun Length
11 150 ft / 46 m 7,485 ft / 2,281 m 135.66° 117.13° Asphalt 0 ft / 0 m 200 ft / 61 m
29 150 ft / 46 m 7,485 ft / 2,281 m 315.68° 297.15° Asphalt 0 ft / 0 m 100 ft / 30 m

Approach Navaids

Runway Type Ident Frequency Range Bearing (true) Bearing (mag) Slope Elevation
11 Localiser IECH 109.30 MHz 18 nm / 33 km 135.69° 117.16° - 66 ft / 20 m (AMSL)
11 Glidescope IECH 109.30 MHz 10 nm / 19 km 135.67° 117.14° 3.61° 76 ft / 23 m (AMSL)
11 DME IECH 109.30 MHz 18 nm / 33 km - - - 98 ft / 30 m (AMSL)

Popular Alternatives